createdAt,value
2019-04-27T00:01:16.197Z,7.55
2019-04-27T00:03:47.301Z,7.25
2019-04-27T00:06:17.497Z,6.22
2019-04-27T00:08:50.527Z,7.03
2019-04-27T00:11:20.732Z,7.65
2019-04-27T00:13:49.657Z,8.40
2019-04-27T00:16:36.192Z,7.45
2019-04-27T00:19:23.270Z,7.42
2019-04-27T00:21:53.685Z,7.33
2019-04-27T00:24:23.551Z,7.67
2019-04-27T00:26:53.950Z,8.45
2019-04-27T00:29:23.653Z,8.85
2019-04-27T00:31:53.426Z,8.40
2019-04-27T00:34:23.735Z,7.05
2019-04-27T00:37:10.245Z,8.68
2019-04-27T00:39:43.398Z,7.37
2019-04-27T00:42:13.508Z,8.65
2019-04-27T00:44:42.978Z,8.60
2019-04-27T00:47:11.791Z,8.18
2019-04-27T00:49:40.355Z,8.08
2019-04-27T00:52:08.951Z,7.08
2019-04-27T00:54:37.519Z,8.98
2019-04-27T00:57:13.646Z,8.95
2019-04-27T01:00:03.186Z,8.35
2019-04-27T01:02:36.622Z,7.25
2019-04-27T01:05:08.029Z,8.88
2019-04-27T01:07:36.528Z,7.58
2019-04-27T01:10:07.160Z,7.58
2019-04-27T01:12:35.704Z,7.83
2019-04-27T01:15:05.508Z,8.70
2019-04-27T01:17:34.121Z,8.88
2019-04-27T01:20:02.674Z,8.03
2019-04-27T01:22:31.221Z,7.97
2019-04-27T01:24:59.825Z,8.13
2019-04-27T01:27:30.033Z,8.05
2019-04-27T01:29:58.807Z,8.70
2019-04-27T01:32:29.168Z,7.80
2019-04-27T01:34:59.168Z,7.25
2019-04-27T01:37:28.534Z,9.08
2019-04-27T01:39:58.929Z,9.28
2019-04-27T01:42:29.382Z,7.95
2019-04-27T01:44:59.427Z,8.70
2019-04-27T01:47:28.949Z,8.03
2019-04-27T01:49:58.491Z,8.70
2019-04-27T01:52:27.170Z,8.50
2019-04-27T01:54:55.713Z,8.05
2019-04-27T01:57:25.467Z,9.48
2019-04-27T01:59:53.951Z,9.30
2019-04-27T02:02:26.682Z,9.10
2019-04-27T02:05:14.750Z,9.35
2019-04-27T02:07:44.830Z,7.45
2019-04-27T02:10:15.145Z,8.50
2019-04-27T02:12:44.267Z,8.35
2019-04-27T02:15:14.483Z,8.03
2019-04-27T02:17:42.989Z,9.03
2019-04-27T02:20:11.741Z,7.47
2019-04-27T02:22:40.340Z,9.10
2019-04-27T02:25:09.469Z,9.48
2019-04-27T02:27:39.689Z,9.35
2019-04-27T02:30:30.457Z,9.45
2019-04-27T02:33:15.765Z,8.83
2019-04-27T02:35:44.470Z,9.25
2019-04-27T02:38:13.012Z,8.63
2019-04-27T02:40:51.087Z,9.33
2019-04-27T02:43:23.039Z,8.53
2019-04-27T02:45:51.662Z,8.85
2019-04-27T02:48:20.277Z,8.38
2019-04-27T02:50:50.451Z,8.78
2019-04-27T02:53:20.674Z,9.08
2019-04-27T02:55:49.945Z,8.90
2019-04-27T02:58:21.411Z,9.25
2019-04-27T03:00:50.253Z,10.13
2019-04-27T03:03:20.340Z,8.73
2019-04-27T03:05:50.305Z,9.53
2019-04-27T03:08:19.996Z,8.70
2019-04-27T03:10:50.377Z,9.58
2019-04-27T03:13:26.527Z,9.75
2019-04-27T03:15:56.780Z,11.97
2019-04-27T03:18:42.002Z,8.48
2019-04-27T03:21:14.832Z,9.20
2019-04-27T03:23:43.391Z,10.00
2019-04-27T03:26:16.365Z,9.38
2019-04-27T03:28:44.966Z,9.40
2019-04-27T03:31:14.526Z,12.00
2019-04-27T03:33:43.506Z,9.75
2019-04-27T03:36:13.278Z,8.93
2019-04-27T03:38:42.341Z,8.45
2019-04-27T03:41:11.214Z,8.83
2019-04-27T03:43:41.351Z,8.10
2019-04-27T03:46:11.473Z,9.38
2019-04-27T03:48:40.914Z,10.18
2019-04-27T03:51:14.486Z,9.78
2019-04-27T03:56:30.548Z,9.25
2019-04-27T03:59:01.072Z,10.30
2019-04-27T04:01:30.198Z,8.90
2019-04-27T04:04:00.164Z,10.32
2019-04-27T04:06:29.681Z,11.00
2019-04-27T04:09:00.260Z,9.50
2019-04-27T04:11:49.122Z,8.83
2019-04-27T04:14:25.601Z,9.88
2019-04-27T04:17:01.729Z,9.88
2019-04-27T04:19:26.143Z,9.30
2019-04-27T04:21:54.720Z,10.18
2019-04-27T04:24:23.286Z,9.43
2019-04-27T04:26:51.890Z,9.10
2019-04-27T04:29:20.543Z,9.63
2019-04-27T04:31:50.279Z,9.50
2019-04-27T04:34:19.938Z,9.88
2019-04-27T04:36:50.432Z,8.08
2019-04-27T04:39:19.889Z,10.08
2019-04-27T04:41:51.094Z,9.53
2019-04-27T04:44:24.217Z,9.38
2019-04-27T04:46:54.423Z,9.50
2019-04-27T04:49:23.027Z,9.68
2019-04-27T04:51:51.638Z,8.90
2019-04-27T04:54:24.247Z,8.90
2019-04-27T04:56:50.445Z,9.35
2019-04-27T04:59:20.115Z,10.80
2019-04-27T05:01:49.926Z,9.15
2019-04-27T05:04:19.319Z,9.53
2019-04-27T05:06:49.249Z,8.80
2019-04-27T05:09:19.365Z,8.68
2019-04-27T05:11:48.676Z,9.90
2019-04-27T05:14:17.419Z,9.75
2019-04-27T05:16:45.954Z,10.72
2019-04-27T05:19:14.525Z,9.53
2019-04-27T05:21:43.128Z,8.90
2019-04-27T05:24:11.663Z,9.65
2019-04-27T05:26:40.230Z,9.10
2019-04-27T05:29:09.231Z,8.63
2019-04-27T05:31:38.822Z,8.98
2019-04-27T05:34:09.370Z,9.73
2019-04-27T05:36:41.661Z,9.18
2019-04-27T05:39:09.784Z,10.00
2019-04-27T05:41:41.240Z,9.65
2019-04-27T05:44:12.757Z,9.20
2019-04-27T05:46:58.932Z,9.20
2019-04-27T05:49:29.538Z,9.83
2019-04-27T05:51:59.464Z,9.65
2019-04-27T05:54:29.427Z,8.55
2019-04-27T05:56:59.208Z,10.32
2019-04-27T05:59:29.672Z,10.55
2019-04-27T06:01:59.279Z,10.08
2019-04-27T06:04:29.077Z,10.93
2019-04-27T06:06:58.815Z,9.45
2019-04-27T06:09:28.979Z,9.90
2019-04-27T06:11:59.104Z,9.90
2019-04-27T06:14:29.219Z,10.95
2019-04-27T06:16:59.623Z,10.40
2019-04-27T06:19:29.159Z,9.73
2019-04-27T06:22:00.979Z,10.35
2019-04-27T06:24:29.747Z,9.25
2019-04-27T06:26:59.730Z,10.70
2019-04-27T06:29:29.287Z,10.63
2019-04-27T06:31:59.363Z,11.33
2019-04-27T06:34:30.563Z,9.10
2019-04-27T06:36:59.954Z,9.93
2019-04-27T06:39:29.763Z,10.05
2019-04-27T06:42:01.107Z,10.08
2019-04-27T06:44:29.396Z,10.23
2019-04-27T06:46:59.183Z,10.68
2019-04-27T06:49:29.418Z,11.43
2019-04-27T06:51:58.660Z,10.60
2019-04-27T06:54:28.864Z,8.98
2019-04-27T06:56:59.258Z,8.98
2019-04-27T06:59:28.871Z,10.68
2019-04-27T07:02:00.842Z,10.78
2019-04-27T07:04:29.517Z,9.18
2019-04-27T07:07:01.333Z,8.40
2019-04-27T07:09:29.617Z,9.58
2019-04-27T07:11:59.268Z,9.35
2019-04-27T07:14:29.485Z,8.38
2019-04-27T07:16:59.221Z,8.93
2019-04-27T07:19:29.305Z,9.63
2019-04-27T07:21:59.097Z,10.30
2019-04-27T07:24:29.360Z,9.25
2019-04-27T07:26:59.629Z,11.03
2019-04-27T07:29:29.251Z,8.85
2019-04-27T07:31:59.504Z,8.50
2019-04-27T07:34:29.047Z,9.13
2019-04-27T07:36:59.735Z,8.28
2019-04-27T07:39:29.522Z,7.72
2019-04-27T07:41:58.677Z,7.25
2019-04-27T07:44:34.929Z,8.03
2019-04-27T07:47:23.136Z,7.75
2019-04-27T07:49:52.133Z,6.80
2019-04-27T07:52:21.467Z,7.75
2019-04-27T07:54:50.160Z,7.03
2019-04-27T07:57:19.760Z,6.55
2019-04-27T07:59:50.217Z,7.37
2019-04-27T08:02:19.286Z,6.35
2019-04-27T08:04:49.775Z,6.15
2019-04-27T08:07:19.711Z,7.30
2019-04-27T08:09:49.639Z,6.78
2019-04-27T08:12:20.664Z,7.28
2019-04-27T08:14:49.265Z,6.58
2019-04-27T08:17:19.096Z,6.75
2019-04-27T08:19:49.634Z,7.50
2019-04-27T08:22:19.337Z,7.15
2019-04-27T08:24:49.672Z,7.08
2019-04-27T08:27:22.715Z,6.58
2019-04-27T08:32:33.608Z,6.78
2019-04-27T08:37:29.968Z,8.33
2019-04-27T08:39:59.219Z,6.33
2019-04-27T08:42:29.386Z,6.50
2019-04-27T08:44:59.430Z,7.28
2019-04-27T08:47:29.361Z,6.65
2019-04-27T08:49:59.104Z,7.60
2019-04-27T08:52:29.007Z,7.37
2019-04-27T08:54:59.408Z,6.92
2019-04-27T08:57:29.008Z,6.75
2019-04-27T08:59:59.521Z,7.03
2019-04-27T09:02:39.732Z,6.87
2019-04-27T09:04:59.605Z,7.15
2019-04-27T09:07:44.965Z,7.33
2019-04-27T09:10:31.956Z,6.10
2019-04-27T09:13:16.932Z,6.87
2019-04-27T09:15:49.954Z,6.67
2019-04-27T09:20:52.412Z,7.40
2019-04-27T09:25:49.746Z,7.33
2019-04-27T09:28:20.082Z,7.35
2019-04-27T09:30:49.765Z,7.28
2019-04-27T09:33:18.593Z,7.50
2019-04-27T09:35:47.884Z,6.72
2019-04-27T09:38:16.720Z,7.25
2019-04-27T09:40:46.701Z,6.47
2019-04-27T09:43:15.782Z,6.87
2019-04-27T09:45:44.451Z,6.10
2019-04-27T09:48:12.981Z,6.12
2019-04-27T09:50:41.623Z,6.50
2019-04-27T09:53:10.170Z,6.03
2019-04-27T09:55:38.710Z,5.50
2019-04-27T09:58:07.330Z,6.72
2019-04-27T10:00:36.564Z,6.05
2019-04-27T10:03:06.568Z,5.67
2019-04-27T10:05:36.684Z,5.83
2019-04-27T10:08:06.200Z,6.22
2019-04-27T10:10:36.996Z,5.75
2019-04-27T10:13:06.832Z,6.58
2019-04-27T10:15:35.685Z,6.47
2019-04-27T10:18:06.059Z,7.75
2019-04-27T10:20:39.022Z,8.83
2019-04-27T10:23:06.264Z,6.80
2019-04-27T10:25:37.489Z,6.22
2019-04-27T10:28:06.858Z,6.95
2019-04-27T10:30:35.945Z,7.80
2019-04-27T10:33:07.753Z,7.58
2019-04-27T10:35:36.371Z,7.40
2019-04-27T10:38:05.147Z,6.28
2019-04-27T10:40:33.741Z,6.15
2019-04-27T10:43:02.380Z,7.33
2019-04-27T10:45:31.190Z,6.53
2019-04-27T10:47:59.817Z,6.65
2019-04-27T10:50:28.566Z,5.70
2019-04-27T10:52:59.336Z,6.00
2019-04-27T10:55:27.567Z,6.47
2019-04-27T10:57:56.278Z,6.12
2019-04-27T11:00:38.525Z,5.87
2019-04-27T11:03:07.716Z,6.10
2019-04-27T11:05:43.716Z,6.75
2019-04-27T11:08:12.787Z,7.33
2019-04-27T11:10:41.995Z,6.62
2019-04-27T11:13:10.757Z,6.58
2019-04-27T11:15:39.545Z,7.05
2019-04-27T11:18:08.318Z,7.50
2019-04-27T11:20:37.119Z,7.78
2019-04-27T11:23:09.197Z,6.87
2019-04-27T11:25:36.487Z,5.83
2019-04-27T11:28:05.810Z,7.22
2019-04-27T11:30:34.761Z,5.62
2019-04-27T11:33:03.753Z,6.20
2019-04-27T11:35:36.704Z,6.40
2019-04-27T11:38:05.725Z,5.65
2019-04-27T11:40:34.518Z,5.85
2019-04-27T11:43:03.192Z,5.70
2019-04-27T11:45:32.003Z,5.87
2019-04-27T11:48:00.649Z,5.50
2019-04-27T11:50:29.440Z,5.97
2019-04-27T11:52:58.188Z,5.55
2019-04-27T11:55:27.453Z,5.95
2019-04-27T11:57:56.480Z,6.60
2019-04-27T12:00:27.533Z,7.05
2019-04-27T12:02:56.827Z,6.90
2019-04-27T12:05:26.140Z,6.50
2019-04-27T12:07:56.052Z,7.03
2019-04-27T12:10:26.315Z,6.37
2019-04-27T12:12:56.247Z,8.00
2019-04-27T12:15:26.287Z,7.33
2019-04-27T12:17:56.173Z,8.45
2019-04-27T12:20:25.803Z,8.38
2019-04-27T12:22:55.232Z,7.25
2019-04-27T12:25:23.909Z,7.55
2019-04-27T12:27:57.119Z,7.12
2019-04-27T12:33:01.456Z,7.87
2019-04-27T12:35:30.069Z,7.90
2019-04-27T12:37:58.750Z,7.87
2019-04-27T12:40:27.637Z,9.48
2019-04-27T12:42:56.340Z,8.68
2019-04-27T12:45:26.699Z,8.85
2019-04-27T12:47:56.563Z,8.80
2019-04-27T12:50:26.190Z,10.58
2019-04-27T12:53:02.496Z,10.85
2019-04-27T12:55:41.786Z,9.65
2019-04-27T12:58:12.191Z,10.13
2019-04-27T13:00:51.457Z,11.95
2019-04-27T13:03:20.397Z,8.93
2019-04-27T13:05:49.356Z,10.43
2019-04-27T13:08:18.379Z,9.53
2019-04-27T13:10:47.160Z,9.65
2019-04-27T13:13:16.459Z,11.35
2019-04-27T13:15:45.957Z,12.13
2019-04-27T13:18:16.583Z,12.23
2019-04-27T13:20:45.222Z,9.98
2019-04-27T13:23:14.180Z,12.30
2019-04-27T13:25:43.969Z,11.73
2019-04-27T13:28:12.471Z,10.95
2019-04-27T13:30:41.083Z,12.65
2019-04-27T13:33:09.614Z,15.10
2019-04-27T13:35:38.213Z,13.03
2019-04-27T13:38:06.779Z,13.55
2019-04-27T13:40:37.022Z,13.48
2019-04-27T13:43:07.699Z,12.05
2019-04-27T13:45:43.884Z,12.58
2019-04-27T13:48:30.190Z,12.45
2019-04-27T13:51:16.656Z,12.95
2019-04-27T13:53:45.629Z,12.18
2019-04-27T13:56:17.665Z,12.58
2019-04-27T13:58:46.365Z,12.65
2019-04-27T14:01:15.473Z,13.00
2019-04-27T14:03:45.178Z,11.40
2019-04-27T14:06:14.190Z,11.30
2019-04-27T14:08:42.718Z,11.38
2019-04-27T14:11:11.318Z,12.68
2019-04-27T14:13:39.883Z,11.60
2019-04-27T14:16:08.792Z,12.03
2019-04-27T14:18:38.460Z,12.07
2019-04-27T14:21:09.181Z,12.28
2019-04-27T14:23:38.596Z,13.15
2019-04-27T14:26:08.753Z,12.28
2019-04-27T14:28:37.630Z,11.20
2019-04-27T14:31:06.199Z,12.35
2019-04-27T14:33:34.774Z,11.97
2019-04-27T14:36:03.377Z,12.78
2019-04-27T14:38:31.859Z,12.85
2019-04-27T14:41:00.435Z,12.37
2019-04-27T14:43:29.144Z,15.48
2019-04-27T14:45:58.292Z,14.40
2019-04-27T14:48:27.060Z,14.47
2019-04-27T14:50:55.681Z,14.23
2019-04-27T14:53:24.251Z,16.23
2019-04-27T14:55:52.836Z,15.90
2019-04-27T14:58:21.423Z,16.07
2019-04-27T15:00:50.135Z,16.75
2019-04-27T15:03:18.745Z,17.30
2019-04-27T15:05:49.646Z,17.37
2019-04-27T15:08:17.619Z,16.75
2019-04-27T15:10:46.786Z,17.40
2019-04-27T15:13:15.398Z,18.17
2019-04-27T15:15:43.896Z,19.82
2019-04-27T15:18:12.637Z,18.65
2019-04-27T15:20:44.545Z,18.40
2019-04-27T15:23:13.623Z,18.90
2019-04-27T15:25:46.494Z,18.92
2019-04-27T15:28:15.269Z,19.77
2019-04-27T15:31:03.583Z,18.85
2019-04-27T15:33:53.305Z,20.02
2019-04-27T15:36:28.329Z,21.33
2019-04-27T15:38:58.829Z,21.60
2019-04-27T15:41:31.679Z,21.33
2019-04-27T15:44:05.913Z,21.50
2019-04-27T15:46:33.765Z,20.72
2019-04-27T15:49:03.100Z,21.70
2019-04-27T15:51:32.308Z,21.42
2019-04-27T15:54:02.026Z,22.27
2019-04-27T15:56:35.174Z,22.20
2019-04-27T15:59:01.145Z,24.00
2019-04-27T16:01:35.700Z,23.10
2019-04-27T16:04:02.500Z,22.52
2019-04-27T16:06:30.489Z,23.15
2019-04-27T16:08:59.172Z,23.65
2019-04-27T16:11:27.771Z,24.75
2019-04-27T16:13:56.268Z,24.95
2019-04-27T16:16:29.169Z,26.75
2019-04-27T16:18:55.076Z,25.70
2019-04-27T16:21:23.648Z,28.70
2019-04-27T16:23:52.262Z,26.50
2019-04-27T16:26:20.899Z,27.75
2019-04-27T16:28:53.000Z,28.30
2019-04-27T16:31:20.468Z,29.40
2019-04-27T16:33:49.649Z,27.58
2019-04-27T16:36:19.789Z,28.90
2019-04-27T16:38:56.362Z,29.50
2019-04-27T16:41:24.970Z,30.12
2019-04-27T16:43:53.476Z,29.77
2019-04-27T16:46:22.339Z,30.05
2019-04-27T16:48:50.928Z,29.10
2019-04-27T16:51:19.521Z,29.63
2019-04-27T16:53:48.428Z,29.57
2019-04-27T16:56:20.495Z,31.48
2019-04-27T16:58:49.010Z,30.10
2019-04-27T17:01:22.119Z,32.00
2019-04-27T17:03:50.771Z,31.25
2019-04-27T17:06:21.331Z,32.10
2019-04-27T17:08:50.160Z,32.75
2019-04-27T17:11:19.619Z,35.23
2019-04-27T17:13:59.146Z,36.93
2019-04-27T17:16:48.867Z,35.78
2019-04-27T17:19:28.906Z,39.10
2019-04-27T17:21:58.136Z,38.35
2019-04-27T17:24:43.804Z,39.20
2019-04-27T17:27:11.129Z,37.98
2019-04-27T17:29:39.032Z,37.48
2019-04-27T17:32:09.139Z,39.40
2019-04-27T17:34:39.542Z,37.13
2019-04-27T17:37:08.305Z,38.55
2019-04-27T17:39:38.706Z,38.28
2019-04-27T17:42:08.485Z,39.18
2019-04-27T17:44:39.210Z,38.10
2019-04-27T17:47:08.852Z,39.45
2019-04-27T17:49:38.203Z,36.88
2019-04-27T17:52:08.627Z,34.98
2019-04-27T17:54:42.600Z,34.73
2019-04-27T17:57:10.006Z,35.65
2019-04-27T17:59:37.749Z,33.45
2019-04-27T18:02:06.578Z,32.85
2019-04-27T18:04:37.745Z,33.13
2019-04-27T18:07:05.525Z,31.87
2019-04-27T18:09:39.896Z,32.40
2019-04-27T18:12:08.058Z,32.10
2019-04-27T18:14:39.465Z,30.65
2019-04-27T18:17:10.280Z,32.25
2019-04-27T18:19:40.233Z,32.10
2019-04-27T18:22:10.108Z,31.48
2019-04-27T18:24:40.295Z,31.23
2019-04-27T18:27:25.600Z,30.92
2019-04-27T18:29:59.261Z,31.50
2019-04-27T18:32:27.645Z,31.30
2019-04-27T18:34:56.279Z,31.12
2019-04-27T18:37:25.132Z,30.27
2019-04-27T18:39:55.048Z,30.08
2019-04-27T18:42:28.031Z,30.15
2019-04-27T18:44:54.124Z,29.87
2019-04-27T18:47:22.792Z,29.18
2019-04-27T18:49:55.503Z,27.73
2019-04-27T18:52:40.727Z,29.10
2019-04-27T18:55:09.315Z,28.73
2019-04-27T18:57:38.915Z,28.05
2019-04-27T19:00:10.763Z,27.98
2019-04-27T19:02:39.409Z,26.85
2019-04-27T19:05:08.879Z,25.27
2019-04-27T19:07:38.210Z,25.90
2019-04-27T19:10:08.996Z,25.68
2019-04-27T19:12:39.432Z,27.15
2019-04-27T19:15:09.229Z,27.65
2019-04-27T19:17:38.651Z,27.77
2019-04-27T19:20:10.454Z,26.87
2019-04-27T19:22:38.742Z,29.05
2019-04-27T19:25:09.745Z,26.55
2019-04-27T19:27:42.515Z,26.82
2019-04-27T19:30:24.743Z,26.93
2019-04-27T19:32:53.282Z,27.13
2019-04-27T19:35:21.892Z,26.27
2019-04-27T19:37:50.403Z,25.57
2019-04-27T19:40:18.877Z,25.82
2019-04-27T19:42:48.656Z,25.40
2019-04-27T19:45:20.802Z,24.92
2019-04-27T19:47:48.627Z,25.72
2019-04-27T19:50:19.080Z,26.05
2019-04-27T19:52:50.184Z,24.98
2019-04-27T19:55:18.916Z,25.70
2019-04-27T19:57:49.625Z,24.40
2019-04-27T20:00:25.877Z,25.32
2019-04-27T20:02:54.452Z,29.63
2019-04-27T20:05:23.056Z,25.48
2019-04-27T20:07:51.706Z,27.67
2019-04-27T20:10:20.372Z,27.77
2019-04-27T20:12:50.852Z,26.48
2019-04-27T20:15:19.467Z,25.12
2019-04-27T20:17:47.992Z,26.37
2019-04-27T20:20:16.576Z,24.72
2019-04-27T20:22:45.433Z,25.80
2019-04-27T20:25:14.274Z,25.15
2019-04-27T20:27:48.411Z,25.55
2019-04-27T20:30:14.374Z,23.85
2019-04-27T20:32:42.936Z,24.87
2019-04-27T20:35:11.832Z,24.87
2019-04-27T20:37:41.571Z,23.25
2019-04-27T20:40:11.635Z,24.60
2019-04-27T20:42:41.532Z,25.30
2019-04-27T20:45:12.018Z,25.27
2019-04-27T20:47:40.704Z,24.27
2019-04-27T20:50:09.417Z,25.08
2019-04-27T20:52:42.332Z,24.98
2019-04-27T20:55:13.241Z,24.07
2019-04-27T20:57:41.790Z,23.80
2019-04-27T21:00:12.191Z,24.32
2019-04-27T21:02:42.413Z,23.85
2019-04-27T21:05:21.517Z,28.23
2019-04-27T21:07:52.865Z,24.02
2019-04-27T21:10:22.007Z,23.55
2019-04-27T21:12:51.840Z,24.60
2019-04-27T21:15:21.419Z,22.60
2019-04-27T21:17:51.234Z,22.55
2019-04-27T21:20:21.780Z,22.35
2019-04-27T21:22:51.533Z,24.37
2019-04-27T21:25:20.448Z,24.57
2019-04-27T21:27:49.028Z,24.25
2019-04-27T21:30:17.804Z,23.83
2019-04-27T21:32:46.434Z,24.87
2019-04-27T21:35:14.998Z,23.65
2019-04-27T21:37:43.500Z,24.10
2019-04-27T21:40:16.888Z,24.07
2019-04-27T21:42:45.733Z,24.90
2019-04-27T21:45:17.614Z,22.90
2019-04-27T21:47:47.114Z,22.93
2019-04-27T21:50:17.335Z,24.15
2019-04-27T21:52:47.530Z,25.27
2019-04-27T21:55:17.710Z,25.30
2019-04-27T21:57:46.266Z,26.10
2019-04-27T22:00:42.519Z,25.48
2019-04-27T22:03:11.823Z,25.37
2019-04-27T22:05:41.674Z,27.22
2019-04-27T22:08:11.741Z,26.17
2019-04-27T22:10:40.945Z,27.15
2019-04-27T22:13:09.445Z,28.17
2019-04-27T22:15:38.086Z,26.70
2019-04-27T22:18:06.952Z,26.23
2019-04-27T22:20:36.142Z,27.50
2019-04-27T22:23:15.619Z,26.35
2019-04-27T22:25:44.148Z,30.12
2019-04-27T22:28:12.687Z,29.50
2019-04-27T22:30:41.385Z,27.15
2019-04-27T22:33:11.273Z,26.95
2019-04-27T22:35:41.454Z,27.52
2019-04-27T22:38:11.834Z,27.55
2019-04-27T22:40:53.992Z,28.27
2019-04-27T22:43:41.290Z,27.62
2019-04-27T22:46:17.477Z,28.40
2019-04-27T22:48:46.040Z,30.90
2019-04-27T22:51:14.517Z,28.90
2019-04-27T22:53:42.987Z,29.32
2019-04-27T22:56:13.537Z,29.72
2019-04-27T22:58:58.418Z,29.60
2019-04-27T23:01:22.123Z,29.23
2019-04-27T23:03:55.050Z,29.20
2019-04-27T23:06:23.591Z,29.00
2019-04-27T23:08:52.099Z,28.30
2019-04-27T23:11:21.089Z,29.37
2019-04-27T23:13:50.626Z,28.83
2019-04-27T23:16:21.927Z,28.98
2019-04-27T23:18:51.546Z,27.62
2019-04-27T23:21:20.885Z,30.80
2019-04-27T23:23:51.612Z,30.20
2019-04-27T23:26:21.109Z,29.70
2019-04-27T23:28:51.379Z,30.37
2019-04-27T23:31:33.895Z,29.48
2019-04-27T23:34:02.685Z,30.15
2019-04-27T23:36:31.789Z,30.55
2019-04-27T23:39:00.872Z,31.65
2019-04-27T23:41:29.643Z,30.55
2019-04-27T23:43:58.194Z,31.40
2019-04-27T23:46:26.694Z,29.50
2019-04-27T23:48:55.184Z,28.38
2019-04-27T23:51:25.297Z,27.35
2019-04-27T23:53:53.978Z,27.67
2019-04-27T23:56:22.619Z,27.37
2019-04-27T23:58:51.412Z,24.85
